WetterOnline ( https://www.wetteronline.de )

Wetter aktuell Schleswig

Aktuelles Wetter: Schleswig (48m)

6-stündlich | Neueste Meldungen
Ortszeit Temperatur Wetter
So, 23.06. 20:00 19.1° C wolkig
So, 23.06. 14:00 18.5° C bewölkt
So, 23.06. 8:00 15.4° C bedeckt
So, 23.06. 2:00 11.7° C wolkig
Sa, 22.06. 20:00 17.4° C wolkenlos
Sa, 22.06. 14:00 19.4° C wolkig
Sa, 22.06. 8:00 15.0° C bedeckt
Sa, 22.06. 2:00 17.2° C bedeckt
Ortszeit Temperatur Wetter
So, 23.06. 22:00 15.8° C wolkig
So, 23.06. 21:50 15.8° C wolkig
So, 23.06. 21:40 16.2° C wolkig
So, 23.06. 21:30 16.7° C leicht bewölkt
So, 23.06. 21:20 16.7° C leicht bewölkt
So, 23.06. 21:10 17.0° C bewölkt
So, 23.06. 21:00 17.7° C leicht bewölkt
So, 23.06. 20:30 18.0° C wolkenlos
So, 23.06. 20:00 19.1° C wolkig
So, 23.06. 19:30 19.7° C bewölkt
So, 23.06. 19:00 19.3° C leicht bewölkt
Ortszeit Relative Feuchte Sichtweite
So, 23.06. 20:00 69% 50 km
So, 23.06. 14:00 70% 40 km
So, 23.06. 8:00 83% 25 km
So, 23.06. 2:00 92% 28 km
Sa, 22.06. 20:00 63% 55 km
Sa, 22.06. 14:00 62% 40 km
Sa, 22.06. 8:00 94% 50 km
Sa, 22.06. 2:00 100% 2.6 km
Ortszeit Relative Feuchte Sichtweite
So, 23.06. 22:00 85% 45 km
So, 23.06. 21:50 85% -
So, 23.06. 21:40 83% -
So, 23.06. 21:30 80% 50 km
So, 23.06. 21:20 80% -
So, 23.06. 21:10 78% -
So, 23.06. 21:00 76% 45 km
So, 23.06. 20:30 72% 45 km
So, 23.06. 20:00 69% 50 km
So, 23.06. 19:30 65% 45 km
So, 23.06. 19:00 62% >70 km
Ortszeit Niederschlagsmenge Niederschlagsart
So, 23.06. 20:00 0.0 l/m2 in 12 Std. -
So, 23.06. 14:00 0.1 l/m2 in 6 Std. -
So, 23.06. 8:00 0.0 l/m2 in 12 Std. -
So, 23.06. 2:00 0.0 l/m2 in 6 Std. -
Sa, 22.06. 20:00 0.2 l/m2 in 12 Std. -
Sa, 22.06. 14:00 0.1 l/m2 in 6 Std. Sprühregen
Sa, 22.06. 8:00 22 l/m2 in 12 Std. Regen
Sa, 22.06. 2:00 22 l/m2 in 6 Std. Regen
Ortszeit Niederschlagsmenge Niederschlagsart
So, 23.06. 22:00 0.0 l/m2 in 1 Std. -
So, 23.06. 21:50 keine Meldung -
So, 23.06. 21:40 keine Meldung -
So, 23.06. 21:30 0.0 l/m2 in 30 Min -
So, 23.06. 21:20 keine Meldung -
So, 23.06. 21:10 keine Meldung -
So, 23.06. 21:00 0.0 l/m2 in 1 Std. -
So, 23.06. 20:30 0.0 l/m2 in 30 Min -
So, 23.06. 20:00 0.0 l/m2 in 1 Std. -
So, 23.06. 19:30 0.0 l/m2 in 30 Min -
So, 23.06. 19:00 0.0 l/m2 in 1 Std. -
Ortszeit Stärke Spitze Richtung
km/h Bft. km/h Grad Sektor
So, 23.06. 20:00 13 3 39 270° W
So, 23.06. 14:00 14 3 25 270° W
So, 23.06. 8:00 11 2 25 270° W
So, 23.06. 2:00 7 2 25 260° W
Sa, 22.06. 20:00 13 3 43 270° W
Sa, 22.06. 14:00 19 3 43 260° W
Sa, 22.06. 8:00 14 3 32 270° W
Sa, 22.06. 2:00 7 2 18 230° SW
Ortszeit Stärke Spitze Richtung
km/h Bft. km/h Grad Sektor
So, 23.06. 22:00 7 2 18 250° W
So, 23.06. 21:50 7 2 - 250° W
So, 23.06. 21:40 7 2 - 260° W
So, 23.06. 21:30 7 2 18 260° W
So, 23.06. 21:20 7 2 - 260° W
So, 23.06. 21:10 9 2 - 250° W
So, 23.06. 21:00 9 2 20 260° W
So, 23.06. 20:30 11 2 22 270° W
So, 23.06. 20:00 13 3 28 270° W
So, 23.06. 19:30 11 2 22 280° W
So, 23.06. 19:00 14 3 29 280° W
Ortszeit Untergrenze Bedeckung Gattung
total tief tief mittel hoch
So, 23.06. 20:00 750 m 6/8 3/8 - - -
So, 23.06. 14:00 1080 m 7/8 7/8 - - -
So, 23.06. 8:00 390 m 8/8 8/8 - - -
So, 23.06. 2:00 510 m 6/8 6/8 - - -
Sa, 22.06. 20:00 - 0/8 0/8 - - -
Sa, 22.06. 14:00 750 m 5/8 5/8 - - -
Sa, 22.06. 8:00 270 m 8/8 8/8 - - -
Sa, 22.06. 2:00 60 m 8/8 8/8 - - -
Ortszeit Bedeckungsgrad in Achtel und Wolkenuntergrenze
So, 23.06. 22:00 7(7800m) 8(8400m)
So, 23.06. 21:50 7(7800m) 8(8400m)
So, 23.06. 21:40 6
So, 23.06. 21:30 4(8400m)
So, 23.06. 21:20 4(8400m)
So, 23.06. 21:10 7
So, 23.06. 21:00 4(8100m) 5(8400m)
So, 23.06. 20:30 keine Wolken
So, 23.06. 20:00 2(750m) 3(1110m) 6(5700m)
So, 23.06. 19:30 2(780m) 6(1260m) 7(5700m)
So, 23.06. 19:00 2(960m) 3(1200m)
Ortszeit Luftdruck NN (hPa) Tendenz (hPa in 3 Std.)
So, 23.06. 20:00 1019 + 0,4
So, 23.06. 14:00 1018 + 0,8
So, 23.06. 8:00 1016 + 1,2
So, 23.06. 2:00 1014 + 0,5
Sa, 22.06. 20:00 1011 + 0,9
Sa, 22.06. 14:00 1009 + 1,3
Sa, 22.06. 8:00 1007 + 0,9
Sa, 22.06. 2:00 1005 - 1,2
Ortszeit Luftdruck NN (hPa) Tendenz (hPa in 3 Std.)
So, 23.06. 22:00 1020 + 0,6
So, 23.06. 21:50 1020 keine Meldung
So, 23.06. 21:40 1020 keine Meldung
So, 23.06. 21:30 1020 + 0,6
So, 23.06. 21:20 1020 keine Meldung
So, 23.06. 21:10 1020 keine Meldung
So, 23.06. 21:00 1020 + 0,5
So, 23.06. 20:30 1020 + 0,5
So, 23.06. 20:00 1019 + 0,4
So, 23.06. 19:30 1019 + 0,4
So, 23.06. 19:00 1019 + 0,4
Ortszeit Schneehöhe (cm)
So, 23.06. 20:00 0
So, 23.06. 14:00 0
So, 23.06. 8:00 0
So, 23.06. 2:00 0
Sa, 22.06. 20:00 0
Sa, 22.06. 14:00 0
Sa, 22.06. 8:00 0
Sa, 22.06. 2:00 0
Ortszeit Schneehöhe (cm)
So, 23.06. 22:00 0
So, 23.06. 21:50 0
So, 23.06. 21:40 -
So, 23.06. 21:30 0
So, 23.06. 21:20 0
So, 23.06. 21:10 -
So, 23.06. 21:00 0
So, 23.06. 20:30 0
So, 23.06. 20:00 0
So, 23.06. 19:30 0
So, 23.06. 19:00 0
Link zu dieser Seite / Seite empfehlen

Das Wetter in ...